Date,TemperatureHighF,TemperatureAvgF,TemperatureLowF,DewpointHighF,DewpointAvgF,DewpointLowF,HumidityHigh,HumidityAvg,HumidityLow,PressureMaxIn,PressureMinIn,WindSpeedMaxMPH,WindSpeedAvgMPH,GustSpeedMaxMPH,PrecipitationSumIn
2013-6-1,81.6,73.5,68.2,72.0,69.0,66.0,99,86,69,29.95,29.76,9,2,17,0.02
2013-6-2,80.7,71.7,65.6,69.0,63.9,61.0,95,78,54,29.88,29.80,7,1,12,0.00
2013-6-3,73.1,65.3,57.6,62.0,55.6,53.0,87,72,55,30.03,29.88,5,1,12,0.00
2013-6-4,79.1,65.9,54.3,53.0,48.2,44.0,89,57,29,30.12,30.02,3,1,7,0.00
2013-6-5,86.5,69.9,57.1,67.0,58.3,48.0,95,69,47,30.05,29.82,2,0,5,0.02
2013-6-6,74.6,65.8,62.7,69.0,60.4,-99.9,99,90,75,29.84,29.74,5,-34,7,0.01
2013-6-7,77.5,66.9,58.4,62.0,60.1,58.0,98,81,56,29.85,29.77,6,1,8,0.00
2013-6-8,80.2,68.9,57.1,65.0,60.6,55.0,94,76,54,30.00,29.86,4,0,6,0.00
2013-6-9,83.0,71.8,62.7,69.0,65.2,62.0,96,81,57,30.05,29.88,4,1,5,0.00
2013-6-10,77.0,69.0,64.6,70.0,66.4,64.0,100,92,75,29.89,29.76,6,1,20,1.74
2013-6-11,86.5,74.0,62.7,70.0,66.2,63.0,100,79,51,29.95,29.84,4,1,9,0.00
2013-6-12,91.0,79.4,69.7,79.0,72.7,67.0,92,80,60,29.91,29.71,7,1,14,0.00
2013-6-13,80.7,74.9,67.6,75.0,65.1,-99.9,95,74,55,29.87,29.56,9,-10,22,0.01
2013-6-14,81.7,70.4,57.6,63.0,58.9,55.0,92,69,46,30.02,29.88,10,1,10,0.01
2013-6-15,83.6,72.4,59.1,67.0,62.4,57.0,95,73,53,30.10,29.93,5,0,10,0.00
2013-6-16,79.0,71.2,67.2,72.0,67.7,64.0,97,88,74,30.01,29.93,3,0,6,0.12
2013-6-17,89.3,75.8,65.4,74.0,68.8,65.0,100,81,49,29.96,29.85,5,0,7,0.13
2013-6-18,85.8,71.6,65.7,72.0,66.7,64.0,96,85,58,29.95,29.81,5,1,8,0.11
2013-6-19,83.9,71.0,58.2,64.0,59.3,56.0,96,69,43,30.09,29.95,5,1,8,0.11
2013-6-20,88.7,74.3,61.1,67.0,60.4,56.0,85,64,41,30.17,30.09,4,0,9,0.00
2013-6-21,88.4,77.3,64.8,70.0,64.9,58.0,86,67,48,30.18,30.09,6,1,9,0.00
2013-6-22,90.1,78.0,67.6,75.0,69.7,66.0,95,77,55,30.15,30.02,5,0,9,0.00
2013-6-23,89.6,76.8,66.7,75.0,68.8,66.0,99,78,50,30.12,30.02,6,0,10,0.00
2013-6-24,87.0,75.9,67.0,75.0,69.7,66.0,96,82,61,30.11,30.00,5,1,10,0.00
2013-6-25,90.1,78.2,67.6,78.0,70.7,-99.9,100,81,59,30.05,29.86,8,-9,13,0.00
2013-6-26,86.4,74.9,67.6,77.0,71.0,66.0,99,88,72,29.91,29.78,7,1,26,0.20
2013-6-27,87.7,80.4,70.8,77.0,73.3,71.0,100,80,65,29.75,29.67,4,1,11,0.08
2013-6-28,87.7,75.0,65.0,72.0,65.7,-99.9,99,77,44,29.68,29.55,18,-9,20,0.04
2013-6-29,77.3,66.9,63.0,71.0,64.4,-99.9,100,94,73,29.64,29.55,3,-10,8,1.14
2013-6-30,85.3,70.9,63.0,70.0,66.2,63.0,100,87,51,29.79,29.63,4,1,10,0.01